Time;durP1;ratioP1;P1;durP2;ratioP2;P2;SDS_P1;SDS_P2;PMS_P1;PMS_P2;Temp;Humidity;BMP_temperature;BMP_pressure;BME280_temperature;BME280_humidity;BME280_pressure;Samples;Min_cycle;Max_cycle;Signal;HPM_P1;HPM_P2
2023/12/09 00:02:01;;;;;;;9.45;3.25;;;;;;;;;;5063930;28;20032;-70
2023/12/09 00:04:27;;;;;;;9.10;3.05;;;;;;;;;;5063536;28;20032;-69
2023/12/09 00:06:53;;;;;;;8.52;2.83;;;;;;;;;;5059706;28;20031;-69
2023/12/09 00:09:22;;;;;;;11.50;2.85;;;;;;;;;;5066039;28;20073;-69
2023/12/09 00:11:48;;;;;;;8.25;2.83;;;;;;;;;;5057910;28;20025;-69
2023/12/09 00:14:14;;;;;;;10.23;3.65;;;;;;;;;;5062333;28;20043;-69
2023/12/09 00:16:41;;;;;;;13.25;3.03;;;;;;;;;;5058177;28;20036;-69
2023/12/09 00:19:09;;;;;;;9.90;3.08;;;;;;;;;;5056737;28;20051;-69
2023/12/09 00:21:35;;;;;;;13.27;3.00;;;;;;;;;;5065083;28;20366;-69
2023/12/09 00:24:01;;;;;;;14.07;3.00;;;;;;;;;;5060495;28;20025;-69
2023/12/09 00:26:27;;;;;;;10.43;2.70;;;;;;;;;;5062498;28;20619;-69
2023/12/09 00:28:53;;;;;;;7.85;3.30;;;;;;;;;;5060240;28;20087;-69
2023/12/09 00:31:20;;;;;;;8.60;3.13;;;;;;;;;;5066759;28;20555;-70
2023/12/09 00:33:46;;;;;;;8.27;3.00;;;;;;;;;;5064336;28;20020;-69
2023/12/09 00:36:12;;;;;;;7.57;2.65;;;;;;;;;;5055837;28;20486;-68
2023/12/09 00:38:39;;;;;;;14.90;4.20;;;;;;;;;;5059709;28;20028;-69
2023/12/09 00:41:06;;;;;;;10.35;3.20;;;;;;;;;;5062671;28;20064;-69
2023/12/09 00:43:32;;;;;;;6.90;3.13;;;;;;;;;;5063247;28;20024;-70
2023/12/09 00:45:59;;;;;;;18.60;3.75;;;;;;;;;;5061760;28;20529;-69
2023/12/09 00:48:25;;;;;;;9.88;3.95;;;;;;;;;;5064308;28;20035;-70
2023/12/09 00:50:51;;;;;;;9.75;3.10;;;;;;;;;;5060263;28;20404;-69
2023/12/09 00:53:17;;;;;;;12.20;2.95;;;;;;;;;;5061913;28;20103;-70
2023/12/09 00:55:43;;;;;;;13.07;3.22;;;;;;;;;;5063257;28;20028;-69
2023/12/09 00:58:10;;;;;;;14.30;3.50;;;;;;;;;;5056763;28;20032;-69
2023/12/09 01:00:36;;;;;;;7.53;3.15;;;;;;;;;;5060438;28;20023;-69
2023/12/09 01:03:05;;;;;;;12.48;3.15;;;;;;;;;;5060439;28;20549;-69
2023/12/09 01:05:31;;;;;;;8.32;3.20;;;;;;;;;;5056393;28;20123;-69
2023/12/09 01:07:57;;;;;;;19.40;3.58;;;;;;;;;;5060843;28;20028;-70
2023/12/09 01:10:23;;;;;;;9.93;3.67;;;;;;;;;;5063113;28;20025;-69
2023/12/09 01:12:49;;;;;;;10.60;2.60;;;;;;;;;;5059483;28;20025;-69
2023/12/09 01:15:16;;;;;;;10.88;3.00;;;;;;;;;;5057634;28;20039;-69
2023/12/09 01:17:42;;;;;;;8.73;2.80;;;;;;;;;;5053032;28;20029;-70
2023/12/09 01:20:09;;;;;;;11.23;2.60;;;;;;;;;;5059039;28;20020;-69
2023/12/09 01:22:35;;;;;;;10.07;2.95;;;;;;;;;;5059392;28;20484;-69
2023/12/09 01:25:01;;;;;;;7.90;2.80;;;;;;;;;;5066693;28;20036;-69
2023/12/09 01:27:27;;;;;;;8.40;3.95;;;;;;;;;;5061761;28;20171;-69
2023/12/09 01:29:53;;;;;;;7.68;2.53;;;;;;;;;;5059782;28;20599;-69
2023/12/09 01:32:20;;;;;;;6.93;2.38;;;;;;;;;;5059842;28;20039;-69
2023/12/09 01:34:46;;;;;;;6.35;3.00;;;;;;;;;;5058548;28;20035;-69
2023/12/09 01:37:12;;;;;;;10.63;2.95;;;;;;;;;;5061637;28;20028;-69
2023/12/09 01:39:40;;;;;;;5.07;2.20;;;;;;;;;;5058840;28;20590;-69
2023/12/09 01:42:06;;;;;;;4.20;2.58;;;;;;;;;;5063338;28;20020;-69
2023/12/09 01:44:32;;;;;;;7.50;2.65;;;;;;;;;;5066164;28;20044;-71
2023/12/09 01:46:58;;;;;;;7.53;2.35;;;;;;;;;;5064439;28;20093;-69
2023/12/09 01:49:25;;;;;;;4.75;2.10;;;;;;;;;;5072870;28;20046;-70
2023/12/09 01:51:51;;;;;;;4.13;1.92;;;;;;;;;;5065861;28;20891;-70
2023/12/09 01:54:17;;;;;;;4.68;2.35;;;;;;;;;;5065771;28;20060;-70
2023/12/09 01:56:43;;;;;;;8.32;3.42;;;;;;;;;;5064864;28;20148;-70
2023/12/09 01:59:10;;;;;;;5.80;2.75;;;;;;;;;;5060387;28;20221;-70
2023/12/09 02:01:36;;;;;;;5.28;2.25;;;;;;;;;;5060976;28;20024;-70
2023/12/09 02:04:03;;;;;;;6.10;1.98;;;;;;;;;;5063441;28;20033;-70
2023/12/09 02:06:29;;;;;;;3.40;2.00;;;;;;;;;;5064321;28;21231;-70
2023/12/09 02:08:56;;;;;;;3.63;2.00;;;;;;;;;;5065209;28;20036;-71
2023/12/09 02:11:22;;;;;;;9.70;2.05;;;;;;;;;;5063983;28;20029;-70
2023/12/09 02:14:08;;;;;;;3.78;1.75;;;;;;;;;;5062681;28;20131;-70
2023/12/09 02:16:42;;;;;;;6.13;1.98;;;;;;;;;;5064855;28;20075;-71
2023/12/09 02:19:11;;;;;;;2.25;1.65;;;;;;;;;;5063304;28;20055;-71
2023/12/09 02:21:59;;;;;;;5.50;1.95;;;;;;;;;;5061853;28;20047;-70
2023/12/09 02:24:25;;;;;;;3.65;1.92;;;;;;;;;;5062485;28;20536;-71
2023/12/09 02:26:52;;;;;;;1.48;1.38;;;;;;;;;;5064171;28;20035;-71
2023/12/09 02:29:19;;;;;;;4.00;1.52;;;;;;;;;;5063920;28;20032;-71
2023/12/09 02:31:46;;;;;;;1.75;1.40;;;;;;;;;;5060279;28;20528;-71
2023/12/09 02:34:13;;;;;;;1.55;1.45;;;;;;;;;;5062124;28;20035;-71
2023/12/09 02:36:39;;;;;;;1.55;1.38;;;;;;;;;;5066207;28;20033;-71
2023/12/09 02:39:09;;;;;;;1.48;1.20;;;;;;;;;;5060937;28;20031;-72
2023/12/09 02:41:36;;;;;;;1.02;1.02;;;;;;;;;;5063956;28;20084;-72
2023/12/09 02:44:02;;;;;;;1.10;1.10;;;;;;;;;;5061117;28;20504;-71
2023/12/09 02:46:28;;;;;;;1.30;1.30;;;;;;;;;;5064135;28;20064;-71
2023/12/09 02:48:54;;;;;;;1.63;1.40;;;;;;;;;;5064497;28;20021;-71
2023/12/09 02:51:20;;;;;;;1.55;1.45;;;;;;;;;;5061383;28;20094;-71
2023/12/09 02:53:50;;;;;;;1.85;1.85;;;;;;;;;;5061484;28;20154;-71
2023/12/09 02:56:16;;;;;;;1.13;1.13;;;;;;;;;;5065225;28;20027;-71
2023/12/09 02:58:42;;;;;;;1.45;1.23;;;;;;;;;;5071006;28;20606;-71
2023/12/09 03:01:08;;;;;;;2.47;1.27;;;;;;;;;;5058187;28;20400;-71
2023/12/09 03:03:37;;;;;;;1.00;1.00;;;;;;;;;;5060371;28;20024;-71
2023/12/09 03:06:03;;;;;;;1.33;1.33;;;;;;;;;;5074590;28;20056;-71
2023/12/09 03:08:29;;;;;;;1.00;1.00;;;;;;;;;;5058328;28;20166;-71
2023/12/09 03:10:55;;;;;;;1.10;1.10;;;;;;;;;;5061589;28;20089;-72
2023/12/09 03:13:22;;;;;;;1.13;1.13;;;;;;;;;;5060838;28;20096;-71
2023/12/09 03:15:48;;;;;;;1.90;1.75;;;;;;;;;;5058971;28;20050;-71
2023/12/09 03:18:14;;;;;;;1.23;1.23;;;;;;;;;;5057221;28;20036;-71
2023/12/09 03:20:41;;;;;;;5.80;2.13;;;;;;;;;;5059649;28;20237;-71
2023/12/09 03:23:07;;;;;;;1.40;1.30;;;;;;;;;;5060463;28;20074;-71
2023/12/09 03:25:33;;;;;;;2.13;1.67;;;;;;;;;;5061331;28;20119;-70
2023/12/09 03:27:59;;;;;;;1.92;1.30;;;;;;;;;;5060906;28;20025;-70
2023/12/09 03:30:25;;;;;;;1.30;1.30;;;;;;;;;;5058783;28;20074;-71
2023/12/09 03:32:54;;;;;;;2.40;1.52;;;;;;;;;;5056316;28;20024;-71
2023/12/09 03:35:20;;;;;;;1.90;1.48;;;;;;;;;;5056849;28;20044;-71
2023/12/09 03:37:47;;;;;;;1.95;1.50;;;;;;;;;;5060116;28;20074;-71
2023/12/09 03:40:13;;;;;;;1.80;1.55;;;;;;;;;;5060160;28;20032;-71
2023/12/09 03:42:39;;;;;;;1.50;1.40;;;;;;;;;;5087721;28;20468;-71
2023/12/09 03:45:05;;;;;;;1.35;1.35;;;;;;;;;;5054841;28;20550;-71
2023/12/09 03:47:32;;;;;;;1.30;1.30;;;;;;;;;;5076067;28;20408;-71
2023/12/09 03:49:58;;;;;;;1.50;1.40;;;;;;;;;;5058662;28;20111;-71
2023/12/09 03:52:24;;;;;;;1.67;1.58;;;;;;;;;;5055363;28;20447;-71
2023/12/09 03:54:50;;;;;;;1.98;1.52;;;;;;;;;;5057055;28;20063;-71
2023/12/09 03:57:16;;;;;;;5.88;1.92;;;;;;;;;;5057137;28;20064;-71
2023/12/09 03:59:42;;;;;;;1.77;1.67;;;;;;;;;;5058941;28;20823;-71
2023/12/09 04:02:08;;;;;;;1.85;1.40;;;;;;;;;;5061344;28;20028;-71
2023/12/09 04:04:38;;;;;;;1.70;1.52;;;;;;;;;;5050152;28;20024;-71
2023/12/09 04:07:04;;;;;;;2.10;1.80;;;;;;;;;;5057039;28;20028;-71
2023/12/09 04:09:30;;;;;;;1.65;1.30;;;;;;;;;;5059417;28;20042;-71
2023/12/09 04:11:56;;;;;;;1.50;1.40;;;;;;;;;;5067517;28;20276;-71
2023/12/09 04:14:22;;;;;;;4.95;1.63;;;;;;;;;;5063306;28;20554;-70
2023/12/09 04:16:49;;;;;;;1.40;1.30;;;;;;;;;;5066253;28;20097;-72
2023/12/09 04:19:16;;;;;;;1.98;1.77;;;;;;;;;;5067263;28;20024;-72
2023/12/09 04:21:42;;;;;;;1.63;1.52;;;;;;;;;;5069451;28;20367;-71
2023/12/09 04:24:08;;;;;;;1.67;1.50;;;;;;;;;;5061166;28;20025;-72
2023/12/09 04:26:34;;;;;;;2.50;1.70;;;;;;;;;;5064214;28;20016;-72
2023/12/09 04:29:01;;;;;;;2.83;1.98;;;;;;;;;;5061330;28;20175;-72
2023/12/09 04:31:27;;;;;;;1.75;1.17;;;;;;;;;;5062820;28;20028;-71
2023/12/09 04:33:53;;;;;;;1.45;1.35;;;;;;;;;;5064282;28;20648;-72
2023/12/09 04:36:19;;;;;;;1.52;1.27;;;;;;;;;;5061875;28;20061;-72
2023/12/09 04:38:45;;;;;;;1.30;1.20;;;;;;;;;;5063410;28;20036;-71
2023/12/09 04:41:15;;;;;;;2.15;1.60;;;;;;;;;;5065423;28;20056;-71
2023/12/09 04:43:41;;;;;;;1.40;1.35;;;;;;;;;;5076582;28;20028;-71
2023/12/09 04:46:08;;;;;;;1.55;1.45;;;;;;;;;;5067931;28;20524;-71
2023/12/09 04:48:43;;;;;;;1.23;1.23;;;;;;;;;;5059983;28;20074;-70
2023/12/09 04:51:09;;;;;;;1.02;1.02;;;;;;;;;;5077771;28;20135;-71
2023/12/09 04:53:35;;;;;;;1.88;1.67;;;;;;;;;;5044777;28;20044;-71
2023/12/09 04:56:11;;;;;;;1.30;1.20;;;;;;;;;;5061116;28;20031;-70
2023/12/09 04:58:37;;;;;;;1.42;1.40;;;;;;;;;;5063155;28;20166;-70
2023/12/09 05:01:04;;;;;;;1.65;1.10;;;;;;;;;;5061533;28;20039;-70
2023/12/09 05:03:30;;;;;;;1.00;1.00;;;;;;;;;;5060680;28;20067;-70
2023/12/09 05:05:56;;;;;;;1.10;1.10;;;;;;;;;;5064379;28;20036;-70
2023/12/09 05:08:23;;;;;;;1.30;1.20;;;;;;;;;;5063546;28;20039;-70
2023/12/09 05:10:52;;;;;;;1.15;1.15;;;;;;;;;;5059600;28;20419;-70
2023/12/09 05:13:18;;;;;;;1.15;1.15;;;;;;;;;;5082566;28;20075;-70
2023/12/09 05:15:44;;;;;;;1.77;1.38;;;;;;;;;;5064055;28;20055;-70
2023/12/09 05:18:14;;;;;;;0.93;0.93;;;;;;;;;;5068147;28;20543;-71
2023/12/09 05:20:40;;;;;;;1.30;1.20;;;;;;;;;;5066364;28;20127;-70
2023/12/09 05:23:06;;;;;;;1.02;1.02;;;;;;;;;;5058959;28;20099;-70
2023/12/09 05:25:35;;;;;;;1.40;1.30;;;;;;;;;;5062488;28;20562;-71
2023/12/09 05:28:01;;;;;;;1.52;1.42;;;;;;;;;;5081602;28;20034;-70
2023/12/09 05:30:28;;;;;;;1.20;1.20;;;;;;;;;;5060407;28;20741;-71
2023/12/09 05:32:54;;;;;;;1.17;1.17;;;;;;;;;;5064598;28;20025;-71
2023/12/09 05:35:26;;;;;;;0.90;0.90;;;;;;;;;;5067923;28;20047;-71
2023/12/09 05:37:53;;;;;;;1.05;1.05;;;;;;;;;;5074696;28;20077;-71
2023/12/09 05:40:19;;;;;;;1.13;1.13;;;;;;;;;;5070903;28;20488;-71
2023/12/09 05:42:48;;;;;;;1.10;1.10;;;;;;;;;;5068281;28;20025;-71
2023/12/09 05:45:14;;;;;;;0.90;0.90;;;;;;;;;;5064881;28;20032;-71
2023/12/09 05:47:41;;;;;;;1.05;1.05;;;;;;;;;;5065522;28;20634;-71
2023/12/09 05:50:07;;;;;;;2.05;1.02;;;;;;;;;;5066778;28;20495;-71
2023/12/09 05:52:33;;;;;;;1.00;1.00;;;;;;;;;;5066863;28;20035;-71
2023/12/09 05:54:59;;;;;;;0.80;0.80;;;;;;;;;;5079865;28;20041;-71
2023/12/09 05:57:25;;;;;;;0.82;0.82;;;;;;;;;;5068465;28;20031;-71
2023/12/09 05:59:52;;;;;;;1.00;1.00;;;;;;;;;;5065769;28;20166;-72
2023/12/09 06:02:18;;;;;;;1.00;1.00;;;;;;;;;;5063943;28;20111;-72
2023/12/09 06:04:44;;;;;;;1.00;1.00;;;;;;;;;;5064772;28;20143;-71
2023/12/09 06:07:13;;;;;;;1.13;1.13;;;;;;;;;;5063161;28;20113;-71
2023/12/09 06:09:40;;;;;;;1.27;1.17;;;;;;;;;;5080644;28;20033;-72
2023/12/09 06:12:06;;;;;;;1.05;1.05;;;;;;;;;;5060453;28;20507;-72
2023/12/09 06:14:32;;;;;;;1.42;1.40;;;;;;;;;;5063641;28;20396;-72
2023/12/09 06:16:58;;;;;;;1.20;1.20;;;;;;;;;;5062714;28;20039;-72
2023/12/09 06:19:25;;;;;;;1.08;1.08;;;;;;;;;;5061817;28;20532;-72
2023/12/09 06:21:51;;;;;;;1.30;1.05;;;;;;;;;;5064325;28;20432;-72
2023/12/09 06:24:17;;;;;;;1.17;1.17;;;;;;;;;;5062091;28;20502;-72
2023/12/09 06:26:47;;;;;;;1.20;1.20;;;;;;;;;;5074374;28;20504;-72
2023/12/09 06:29:14;;;;;;;1.08;1.08;;;;;;;;;;5064840;28;20511;-71
2023/12/09 06:31:40;;;;;;;1.23;1.23;;;;;;;;;;5061726;28;20386;-72
2023/12/09 06:34:06;;;;;;;2.08;1.02;;;;;;;;;;5065415;28;20038;-72
2023/12/09 06:36:33;;;;;;;1.20;1.20;;;;;;;;;;5064208;28;20051;-72
2023/12/09 06:38:59;;;;;;;1.10;1.10;;;;;;;;;;5061435;28;20037;-72
2023/12/09 06:41:25;;;;;;;1.60;1.45;;;;;;;;;;5060910;28;20539;-71
2023/12/09 06:43:51;;;;;;;1.33;1.30;;;;;;;;;;5066277;28;20369;-71
2023/12/09 06:46:17;;;;;;;1.20;1.20;;;;;;;;;;5060475;28;21109;-72
2023/12/09 06:48:45;;;;;;;1.30;1.30;;;;;;;;;;5069565;28;20036;-72
2023/12/09 06:51:14;;;;;;;1.17;1.17;;;;;;;;;;5061673;28;20388;-72
2023/12/09 06:53:41;;;;;;;1.33;1.27;;;;;;;;;;5057486;28;20604;-72
2023/12/09 06:56:08;;;;;;;1.60;1.50;;;;;;;;;;5058217;28;20025;-71
2023/12/09 06:58:36;;;;;;;2.10;1.40;;;;;;;;;;5059150;28;20391;-72
2023/12/09 07:01:02;;;;;;;1.25;1.25;;;;;;;;;;5061945;28;20034;-72
2023/12/09 07:03:28;;;;;;;1.40;1.30;;;;;;;;;;5060880;28;20040;-72
2023/12/09 07:05:57;;;;;;;1.42;1.33;;;;;;;;;;5060931;28;20549;-71
2023/12/09 07:08:23;;;;;;;1.35;1.30;;;;;;;;;;5061694;28;20662;-72
2023/12/09 07:10:49;;;;;;;1.20;1.20;;;;;;;;;;5063598;28;20036;-72
2023/12/09 07:13:15;;;;;;;2.08;1.38;;;;;;;;;;5065248;28;20024;-72
2023/12/09 07:15:42;;;;;;;1.55;1.45;;;;;;;;;;5061828;28;20437;-72
2023/12/09 07:18:08;;;;;;;2.22;1.63;;;;;;;;;;5060907;28;20020;-72
2023/12/09 07:20:34;;;;;;;1.50;1.40;;;;;;;;;;5059941;28;20578;-72
2023/12/09 07:23:00;;;;;;;1.13;1.13;;;;;;;;;;5061665;28;20024;-72
2023/12/09 07:25:27;;;;;;;1.55;1.45;;;;;;;;;;5057199;28;20020;-71
2023/12/09 07:27:53;;;;;;;3.15;1.63;;;;;;;;;;5064106;28;20104;-72
2023/12/09 07:30:20;;;;;;;3.70;1.48;;;;;;;;;;5062206;28;20422;-72
2023/12/09 07:32:46;;;;;;;1.75;1.30;;;;;;;;;;5063744;28;20020;-71
2023/12/09 07:35:13;;;;;;;2.45;1.52;;;;;;;;;;5063533;28;20029;-71
2023/12/09 07:37:39;;;;;;;2.47;1.42;;;;;;;;;;5063503;28;20025;-72
2023/12/09 07:40:06;;;;;;;3.75;1.77;;;;;;;;;;5059691;28;20089;-71
2023/12/09 07:42:32;;;;;;;3.58;1.60;;;;;;;;;;5058468;28;20477;-72
2023/12/09 07:44:58;;;;;;;3.88;1.60;;;;;;;;;;5059183;28;20044;-72
2023/12/09 07:47:25;;;;;;;6.43;2.58;;;;;;;;;;5059990;28;20025;-72
2023/12/09 07:49:51;;;;;;;5.13;1.52;;;;;;;;;;5070620;28;20063;-71
2023/12/09 07:52:18;;;;;;;1.90;1.42;;;;;;;;;;5061862;28;20335;-71
2023/12/09 07:54:45;;;;;;;1.65;1.20;;;;;;;;;;5055110;28;20036;-71
2023/12/09 07:57:11;;;;;;;2.40;1.40;;;;;;;;;;5060348;28;20033;-71
2023/12/09 07:59:38;;;;;;;3.83;1.58;;;;;;;;;;5056758;28;20826;-72
2023/12/09 08:02:04;;;;;;;1.50;1.33;;;;;;;;;;5058977;28;20086;-71
2023/12/09 08:04:30;;;;;;;2.50;1.48;;;;;;;;;;5061255;28;21558;-71
2023/12/09 08:06:56;;;;;;;2.28;1.35;;;;;;;;;;5062163;28;20025;-72
2023/12/09 08:09:22;;;;;;;4.43;1.60;;;;;;;;;;5060656;28;20078;-71
2023/12/09 08:11:49;;;;;;;2.25;1.45;;;;;;;;;;5058436;28;20029;-71
2023/12/09 08:14:15;;;;;;;1.67;1.55;;;;;;;;;;5057681;28;20028;-71
2023/12/09 08:16:41;;;;;;;3.25;1.45;;;;;;;;;;5059616;28;20029;-71
2023/12/09 08:19:07;;;;;;;4.70;1.52;;;;;;;;;;5058198;28;20118;-71
2023/12/09 08:21:37;;;;;;;4.68;1.55;;;;;;;;;;5061117;28;20028;-71
2023/12/09 08:24:03;;;;;;;3.13;1.88;;;;;;;;;;5052348;28;20033;-71
2023/12/09 08:26:30;;;;;;;3.03;1.65;;;;;;;;;;5061164;28;20483;-71
2023/12/09 08:28:56;;;;;;;2.08;1.45;;;;;;;;;;5060980;28;20040;-71
2023/12/09 08:31:22;;;;;;;2.28;1.50;;;;;;;;;;5059966;28;20035;-71
2023/12/09 08:33:49;;;;;;;4.00;1.95;;;;;;;;;;5057297;28;20037;-72
2023/12/09 08:36:15;;;;;;;3.22;1.60;;;;;;;;;;5065840;28;20028;-71
2023/12/09 08:38:41;;;;;;;3.47;1.67;;;;;;;;;;5057981;28;20036;-71
2023/12/09 08:41:07;;;;;;;2.47;1.95;;;;;;;;;;5061118;28;20032;-71
2023/12/09 08:43:35;;;;;;;5.15;1.75;;;;;;;;;;5060755;28;20032;-71
2023/12/09 08:46:01;;;;;;;5.13;1.92;;;;;;;;;;5061712;28;20044;-71
2023/12/09 08:48:27;;;;;;;8.00;1.90;;;;;;;;;;5067507;28;20603;-71
2023/12/09 08:50:54;;;;;;;8.02;1.73;;;;;;;;;;5067168;28;20032;-71
2023/12/09 08:53:20;;;;;;;2.22;1.73;;;;;;;;;;5075915;28;20071;-71
2023/12/09 08:55:46;;;;;;;2.60;2.25;;;;;;;;;;5064566;28;20441;-72
2023/12/09 08:58:12;;;;;;;1.98;1.83;;;;;;;;;;5061397;28;20039;-71
2023/12/09 09:00:41;;;;;;;7.38;2.47;;;;;;;;;;5062141;28;20025;-72
2023/12/09 09:03:08;;;;;;;3.30;1.95;;;;;;;;;;5065213;28;20031;-71
2023/12/09 09:05:34;;;;;;;5.10;2.25;;;;;;;;;;5065220;28;20024;-71
2023/12/09 09:08:00;;;;;;;8.65;2.47;;;;;;;;;;5064030;28;20028;-72
2023/12/09 09:10:27;;;;;;;5.53;2.05;;;;;;;;;;5060653;28;20032;-72
2023/12/09 09:12:53;;;;;;;8.02;2.33;;;;;;;;;;5066647;28;20090;-71
2023/12/09 09:15:20;;;;;;;6.65;2.40;;;;;;;;;;5066964;28;20396;-71
2023/12/09 09:17:47;;;;;;;8.95;3.30;;;;;;;;;;5065055;28;20028;-72
2023/12/09 09:20:13;;;;;;;8.77;3.85;;;;;;;;;;5061255;28;20091;-72
2023/12/09 09:22:39;;;;;;;14.65;3.10;;;;;;;;;;5063625;28;20032;-71
2023/12/09 09:25:06;;;;;;;12.35;3.55;;;;;;;;;;5064317;28;20020;-72
2023/12/09 09:27:32;;;;;;;9.15;2.70;;;;;;;;;;5060499;28;20104;-72
2023/12/09 09:29:58;;;;;;;9.63;3.20;;;;;;;;;;5059595;28;20039;-71
2023/12/09 09:32:24;;;;;;;11.85;3.80;;;;;;;;;;5064282;28;20324;-71
2023/12/09 09:34:50;;;;;;;16.23;3.60;;;;;;;;;;5062256;28;20504;-72
2023/12/09 09:37:17;;;;;;;21.50;5.60;;;;;;;;;;5078758;28;20035;-71
2023/12/09 09:39:43;;;;;;;21.35;4.40;;;;;;;;;;5066455;28;20511;-72
2023/12/09 09:42:13;;;;;;;18.52;4.15;;;;;;;;;;5070568;28;20032;-71
2023/12/09 09:44:44;;;;;;;17.52;4.07;;;;;;;;;;5078842;28;20095;-72
2023/12/09 09:47:11;;;;;;;16.83;4.07;;;;;;;;;;5076359;28;20112;-72
2023/12/09 09:49:38;;;;;;;15.55;4.55;;;;;;;;;;5069841;28;20047;-71
2023/12/09 09:52:08;;;;;;;22.40;4.88;;;;;;;;;;5070854;28;20024;-72
2023/12/09 09:54:34;;;;;;;22.02;4.85;;;;;;;;;;5063568;28;20048;-72
2023/12/09 09:57:03;;;;;;;25.60;4.95;;;;;;;;;;5061174;28;20504;-72
2023/12/09 09:59:31;;;;;;;12.40;4.30;;;;;;;;;;5063686;28;20088;-71
2023/12/09 10:01:57;;;;;;;16.63;4.25;;;;;;;;;;5057600;28;20098;-71
2023/12/09 10:04:23;;;;;;;20.02;5.05;;;;;;;;;;5065297;28;20048;-72
2023/12/09 10:06:49;;;;;;;19.38;4.20;;;;;;;;;;5063227;28;20027;-71
2023/12/09 10:09:16;;;;;;;21.95;4.28;;;;;;;;;;5061582;28;20033;-72
2023/12/09 10:11:42;;;;;;;18.00;5.22;;;;;;;;;;5062840;28;20025;-73
2023/12/09 10:14:08;;;;;;;25.50;5.30;;;;;;;;;;5069256;28;20039;-72
2023/12/09 10:16:35;;;;;;;17.77;6.00;;;;;;;;;;5059292;28;20033;-71
2023/12/09 10:19:02;;;;;;;22.75;4.97;;;;;;;;;;5066278;28;20028;-72
2023/12/09 10:21:28;;;;;;;13.07;4.07;;;;;;;;;;5084400;28;20024;-71
2023/12/09 10:23:55;;;;;;;22.92;6.40;;;;;;;;;;5080661;28;20827;-72
2023/12/09 10:26:21;;;;;;;19.70;5.25;;;;;;;;;;5062507;28;20362;-71
2023/12/09 10:28:47;;;;;;;15.63;4.45;;;;;;;;;;5064409;28;20036;-72
2023/12/09 10:31:13;;;;;;;20.42;7.30;;;;;;;;;;5059617;28;20029;-71
2023/12/09 10:33:40;;;;;;;31.25;12.52;;;;;;;;;;5057951;28;20609;-71
2023/12/09 10:36:08;;;;;;;32.67;9.60;;;;;;;;;;5072953;28;20125;-72
2023/12/09 10:38:34;;;;;;;16.45;6.65;;;;;;;;;;5055853;28;20028;-72
2023/12/09 10:41:01;;;;;;;15.00;5.85;;;;;;;;;;5061997;28;20523;-72
2023/12/09 10:43:27;;;;;;;26.17;6.07;;;;;;;;;;5064422;28;20024;-72
2023/12/09 10:45:53;;;;;;;20.02;5.55;;;;;;;;;;5063431;28;20187;-72
2023/12/09 10:48:20;;;;;;;16.98;6.03;;;;;;;;;;5065354;28;20032;-72
2023/12/09 10:50:46;;;;;;;18.55;5.45;;;;;;;;;;5059771;28;20463;-72
2023/12/09 10:53:12;;;;;;;20.48;5.07;;;;;;;;;;5063294;28;20465;-71
2023/12/09 10:55:39;;;;;;;16.30;6.25;;;;;;;;;;5069102;28;20285;-71
2023/12/09 10:58:06;;;;;;;20.40;5.30;;;;;;;;;;5065392;28;20028;-72
2023/12/09 11:00:33;;;;;;;18.75;5.60;;;;;;;;;;5062860;28;20497;-71
2023/12/09 11:02:59;;;;;;;20.02;6.18;;;;;;;;;;5064231;28;20401;-71
2023/12/09 11:05:26;;;;;;;25.70;4.80;;;;;;;;;;5083211;28;20028;-72
2023/12/09 11:07:54;;;;;;;19.63;4.60;;;;;;;;;;5069439;28;20052;-72
2023/12/09 11:10:20;;;;;;;19.08;5.10;;;;;;;;;;5060926;28;20034;-72
2023/12/09 11:12:50;;;;;;;14.75;5.40;;;;;;;;;;5056459;28;20032;-72
2023/12/09 11:15:16;;;;;;;14.25;4.20;;;;;;;;;;5059246;28;21478;-71
2023/12/09 11:17:49;;;;;;;20.15;5.75;;;;;;;;;;5085507;28;20020;-72
2023/12/09 11:20:21;;;;;;;24.10;5.43;;;;;;;;;;5063816;28;20462;-72
2023/12/09 11:22:47;;;;;;;20.52;5.70;;;;;;;;;;5061635;28;20098;-73
2023/12/09 11:25:21;;;;;;;15.05;5.22;;;;;;;;;;5058973;28;20055;-72
2023/12/09 11:27:50;;;;;;;15.10;3.97;;;;;;;;;;5063092;28;20019;-72
2023/12/09 11:30:44;;;;;;;16.85;5.72;;;;;;;;;;5064310;28;20028;-72
2023/12/09 11:33:11;;;;;;;22.88;6.63;;;;;;;;;;5055904;28;20036;-72
2023/12/09 11:35:37;;;;;;;15.52;5.10;;;;;;;;;;5066009;28;20476;-71
2023/12/09 11:38:05;;;;;;;9.85;4.07;;;;;;;;;;5058276;28;20447;-72
2023/12/09 11:40:32;;;;;;;17.30;5.28;;;;;;;;;;5057536;28;20024;-72
2023/12/09 11:42:59;;;;;;;22.80;5.50;;;;;;;;;;5072908;28;20032;-72
2023/12/09 11:45:27;;;;;;;23.30;6.15;;;;;;;;;;5061569;28;20737;-71
2023/12/09 11:47:54;;;;;;;11.82;4.45;;;;;;;;;;5062251;28;20424;-71
2023/12/09 11:50:20;;;;;;;14.60;4.65;;;;;;;;;;5059974;28;20074;-72
2023/12/09 11:52:47;;;;;;;14.52;5.05;;;;;;;;;;5060882;28;20262;-72
2023/12/09 11:55:15;;;;;;;20.23;5.65;;;;;;;;;;5060165;28;20548;-72
2023/12/09 11:57:42;;;;;;;15.15;4.55;;;;;;;;;;5053581;28;20137;-72
2023/12/09 12:00:11;;;;;;;18.05;4.90;;;;;;;;;;5060664;28;20084;-71
2023/12/09 12:02:44;;;;;;;22.25;5.07;;;;;;;;;;5061824;28;20047;-72
2023/12/09 12:05:13;;;;;;;19.40;4.38;;;;;;;;;;5063794;28;20025;-72
2023/12/09 12:07:40;;;;;;;21.83;4.30;;;;;;;;;;5063285;28;20025;-71
2023/12/09 12:10:07;;;;;;;9.88;3.70;;;;;;;;;;5061154;28;20035;-72
2023/12/09 12:12:33;;;;;;;6.80;3.42;;;;;;;;;;5062100;28;20029;-72
2023/12/09 12:15:00;;;;;;;14.02;4.15;;;;;;;;;;5060658;28;20032;-72
2023/12/09 12:17:28;;;;;;;9.70;3.42;;;;;;;;;;5060241;28;20553;-72
2023/12/09 12:19:55;;;;;;;18.48;4.78;;;;;;;;;;5064355;28;20500;-72
2023/12/09 12:22:22;;;;;;;21.15;6.03;;;;;;;;;;5062775;28;20031;-72
2023/12/09 12:24:48;;;;;;;12.15;4.43;;;;;;;;;;5060393;28;20020;-71
2023/12/09 12:27:14;;;;;;;15.68;4.53;;;;;;;;;;5067813;28;20024;-71
2023/12/09 12:29:41;;;;;;;8.55;3.65;;;;;;;;;;5062608;28;20304;-71
2023/12/09 12:32:07;;;;;;;12.52;4.22;;;;;;;;;;5057419;28;20418;-72
2023/12/09 12:34:34;;;;;;;18.38;3.30;;;;;;;;;;5060584;28;20031;-73
2023/12/09 12:37:00;;;;;;;15.95;4.15;;;;;;;;;;5054606;28;20035;-72
2023/12/09 12:39:26;;;;;;;18.65;4.47;;;;;;;;;;5062687;28;20035;-71
2023/12/09 12:41:52;;;;;;;8.23;3.20;;;;;;;;;;5063101;28;20380;-71
2023/12/09 12:44:19;;;;;;;11.38;3.70;;;;;;;;;;5059323;28;20045;-71
2023/12/09 12:46:45;;;;;;;17.95;4.57;;;;;;;;;;5059268;28;20024;-73
2023/12/09 12:49:11;;;;;;;8.95;3.72;;;;;;;;;;5058438;28;20499;-72
2023/12/09 12:51:40;;;;;;;13.27;3.78;;;;;;;;;;5061803;28;20025;-72
2023/12/09 12:54:06;;;;;;;12.13;4.22;;;;;;;;;;5060378;28;20522;-71
2023/12/09 12:56:33;;;;;;;10.48;3.72;;;;;;;;;;5062118;28;20082;-72
2023/12/09 12:58:59;;;;;;;10.05;3.47;;;;;;;;;;5058022;28;20388;-72
2023/12/09 13:01:25;;;;;;;12.95;4.03;;;;;;;;;;5060304;28;20063;-71
2023/12/09 13:03:51;;;;;;;16.70;4.15;;;;;;;;;;5086873;28;20037;-70
2023/12/09 13:06:17;;;;;;;11.10;3.25;;;;;;;;;;5060140;28;20032;-71
2023/12/09 13:08:45;;;;;;;9.15;3.30;;;;;;;;;;5062260;28;20459;-70
2023/12/09 13:11:11;;;;;;;15.88;4.05;;;;;;;;;;5058607;28;20537;-70
2023/12/09 13:13:37;;;;;;;9.02;3.42;;;;;;;;;;5062691;28;20400;-71
2023/12/09 13:16:07;;;;;;;9.98;3.55;;;;;;;;;;5059474;28;20420;-71
2023/12/09 13:18:33;;;;;;;8.43;3.63;;;;;;;;;;5061787;28;20020;-71
2023/12/09 13:21:00;;;;;;;8.75;2.60;;;;;;;;;;5059183;28;20031;-72
2023/12/09 13:23:29;;;;;;;13.82;4.28;;;;;;;;;;5055174;28;20384;-72
2023/12/09 13:25:55;;;;;;;8.95;3.38;;;;;;;;;;5064258;28;20028;-72
2023/12/09 13:28:23;;;;;;;10.63;3.30;;;;;;;;;;5057319;28;20024;-73
2023/12/09 13:30:49;;;;;;;10.48;3.40;;;;;;;;;;5062424;28;20024;-71
2023/12/09 13:33:15;;;;;;;14.32;3.80;;;;;;;;;;5057214;28;20027;-71
2023/12/09 13:35:41;;;;;;;11.23;3.90;;;;;;;;;;5065824;28;20074;-72
2023/12/09 13:38:09;;;;;;;10.90;3.15;;;;;;;;;;5063753;28;20310;-72
2023/12/09 13:40:37;;;;;;;7.38;3.17;;;;;;;;;;5062674;28;20143;-72
2023/12/09 13:43:03;;;;;;;9.70;3.53;;;;;;;;;;5058320;28;20021;-71
2023/12/09 13:45:35;;;;;;;11.40;2.95;;;;;;;;;;5081004;28;20036;-72
2023/12/09 13:48:02;;;;;;;15.30;3.63;;;;;;;;;;5063150;28;20029;-71
2023/12/09 13:50:28;;;;;;;12.90;4.00;;;;;;;;;;5066820;28;20111;-71
2023/12/09 13:52:57;;;;;;;8.50;3.03;;;;;;;;;;5067372;28;20033;-72
2023/12/09 13:55:26;;;;;;;13.95;3.55;;;;;;;;;;5065849;28;20416;-72
2023/12/09 13:57:52;;;;;;;10.40;3.38;;;;;;;;;;5053538;28;20029;-71
2023/12/09 14:00:19;;;;;;;10.63;3.22;;;;;;;;;;5056338;28;20151;-71
2023/12/09 14:02:45;;;;;;;18.77;3.92;;;;;;;;;;5059464;28;20036;-72
2023/12/09 14:05:13;;;;;;;10.52;3.13;;;;;;;;;;5060582;28;20464;-72
2023/12/09 14:07:40;;;;;;;10.60;4.25;;;;;;;;;;5062659;28;20205;-71
2023/12/09 14:10:08;;;;;;;10.35;3.72;;;;;;;;;;5063362;28;20063;-71
2023/12/09 14:12:35;;;;;;;13.13;4.18;;;;;;;;;;5064119;28;20027;-71
2023/12/09 14:15:01;;;;;;;11.13;4.03;;;;;;;;;;5066154;28;20099;-71
2023/12/09 14:17:28;;;;;;;12.82;3.47;;;;;;;;;;5061699;28;20056;-71
2023/12/09 14:19:55;;;;;;;11.32;3.67;;;;;;;;;;5054906;28;20029;-72
2023/12/09 14:22:21;;;;;;;12.75;3.80;;;;;;;;;;5060729;28;20043;-71
2023/12/09 14:24:47;;;;;;;13.77;3.88;;;;;;;;;;5060869;28;20379;-71
2023/12/09 14:27:17;;;;;;;15.35;3.80;;;;;;;;;;5065718;28;20017;-72
2023/12/09 14:29:43;;;;;;;13.85;5.30;;;;;;;;;;5059239;28;20036;-73
2023/12/09 14:32:09;;;;;;;12.30;3.67;;;;;;;;;;5057815;28;20098;-72
2023/12/09 14:34:35;;;;;;;15.68;4.45;;;;;;;;;;5061309;28;20127;-72
2023/12/09 14:37:03;;;;;;;13.27;4.10;;;;;;;;;;5063034;28;20483;-76